Time;durP1;ratioP1;P1;durP2;ratioP2;P2;SDS_P1;SDS_P2;PMS_P1;PMS_P2;Temp;Humidity;BMP_temperature;BMP_pressure;BME280_temperature;BME280_humidity;BME280_pressure;Samples;Min_cycle;Max_cycle;Signal;HPM_P1;HPM_P2
2023/05/16 00:02:23;;;;;;;2.90;2.10;;;14.20;99.90;;;;;;5117161;28;20874;-63
2023/05/16 00:04:52;;;;;;;2.97;1.90;;;14.20;99.90;;;;;;5117122;28;20424;-66
2023/05/16 00:07:19;;;;;;;2.72;1.90;;;14.10;99.90;;;;;;5116478;28;20482;-66
2023/05/16 00:09:46;;;;;;;2.97;2.10;;;14.10;99.90;;;;;;5116890;28;20412;-65
2023/05/16 00:12:13;;;;;;;2.60;2.40;;;14.10;99.90;;;;;;5116941;28;20481;-66
2023/05/16 00:14:40;;;;;;;2.30;2.10;;;14.20;99.90;;;;;;5116469;28;20496;-66
2023/05/16 00:17:10;;;;;;;3.75;2.75;;;14.40;99.90;;;;;;5116695;28;20477;-65
2023/05/16 00:19:39;;;;;;;4.00;2.90;;;14.40;99.90;;;;;;5116811;28;20431;-66
2023/05/16 00:22:07;;;;;;;3.90;2.60;;;14.50;99.90;;;;;;5115428;28;20502;-66
2023/05/16 00:24:34;;;;;;;4.80;3.25;;;14.60;99.90;;;;;;5114734;28;20933;-66
2023/05/16 00:27:02;;;;;;;4.30;3.20;;;14.60;99.90;;;;;;5114367;28;20500;-66
2023/05/16 00:29:29;;;;;;;6.03;3.83;;;14.60;99.90;;;;;;5114978;28;20420;-66
2023/05/16 00:31:56;;;;;;;3.00;2.70;;;14.60;99.90;;;;;;5114692;28;20443;-65
2023/05/16 00:34:24;;;;;;;3.85;3.50;;;14.60;99.90;;;;;;5114929;28;20469;-66
2023/05/16 00:36:51;;;;;;;5.15;4.28;;;14.60;99.90;;;;;;5115584;28;20903;-65
2023/05/16 00:39:19;;;;;;;5.72;4.07;;;14.60;99.90;;;;;;5116297;28;20866;-66
2023/05/16 00:41:47;;;;;;;5.43;4.93;;;14.50;99.90;;;;;;5116438;28;20477;-66
2023/05/16 00:44:14;;;;;;;7.73;4.57;;;14.50;99.90;;;;;;5115565;28;20850;-66
2023/05/16 00:46:40;;;;;;;6.68;5.80;;;14.60;99.90;;;;;;5116021;28;20485;-66
2023/05/16 00:49:09;;;;;;;5.53;4.82;;;14.60;99.90;;;;;;5115990;28;20420;-66
2023/05/16 00:51:37;;;;;;;6.53;5.93;;;14.70;99.90;;;;;;5115492;28;20461;-65
2023/05/16 00:54:05;;;;;;;7.05;6.35;;;14.60;99.90;;;;;;5115774;28;20847;-66
2023/05/16 00:56:34;;;;;;;7.50;6.47;;;14.60;99.90;;;;;;5115578;28;20436;-66
2023/05/16 00:59:02;;;;;;;7.15;6.43;;;14.50;99.90;;;;;;5115239;28;20420;-65
2023/05/16 01:01:30;;;;;;;7.87;5.80;;;14.50;99.90;;;;;;5116030;28;20517;-66
2023/05/16 01:03:57;;;;;;;7.47;6.78;;;14.50;99.90;;;;;;5115231;28;20442;-64
2023/05/16 01:06:24;;;;;;;7.70;6.90;;;14.50;99.90;;;;;;5113870;28;20432;-66
2023/05/16 01:08:51;;;;;;;7.82;6.40;;;14.50;99.90;;;;;;5115353;28;20412;-65
2023/05/16 01:11:25;;;;;;;7.00;6.30;;;14.50;99.90;;;;;;5115051;28;20460;-64
2023/05/16 01:14:06;;;;;;;9.10;7.10;;;14.40;99.90;;;;;;5115513;28;20420;-64
2023/05/16 01:16:40;;;;;;;8.68;7.78;;;14.30;99.90;;;;;;5113537;28;20844;-65
2023/05/16 01:19:19;;;;;;;10.15;9.15;;;14.10;99.90;;;;;;5115006;28;20477;-65
2023/05/16 01:21:51;;;;;;;10.80;8.40;;;14.00;99.90;;;;;;5115174;28;20508;-66
2023/05/16 01:24:27;;;;;;;8.25;7.32;;;13.80;99.90;;;;;;5115324;28;20785;-65
2023/05/16 01:26:58;;;;;;;10.45;8.52;;;13.90;99.90;;;;;;5115164;28;20420;-65
2023/05/16 01:29:25;;;;;;;11.45;9.18;;;14.00;99.90;;;;;;5115252;28;20516;-66
2023/05/16 01:31:52;;;;;;;9.38;7.90;;;13.80;99.90;;;;;;5115325;28;20701;-66
2023/05/16 01:34:19;;;;;;;11.57;9.25;;;13.70;99.90;;;;;;5115320;28;20797;-65
2023/05/16 01:36:52;;;;;;;12.18;9.77;;;13.70;99.90;;;;;;5115113;28;20428;-66
2023/05/16 01:39:27;;;;;;;11.27;9.38;;;13.70;99.90;;;;;;5115389;28;20420;-66
2023/05/16 01:42:03;;;;;;;10.73;9.05;;;13.80;99.90;;;;;;5113777;28;20433;-67
2023/05/16 01:44:33;;;;;;;12.93;9.30;;;13.90;99.90;;;;;;5114718;28;20416;-66
2023/05/16 01:47:03;;;;;;;11.68;9.63;;;13.90;99.90;;;;;;5114998;28;20470;-65
2023/05/16 01:49:36;;;;;;;14.63;11.07;;;13.80;99.90;;;;;;5114564;28;20843;-66
2023/05/16 01:52:09;;;;;;;14.25;10.63;;;13.80;99.90;;;;;;5112440;28;20527;-66
2023/05/16 01:54:39;;;;;;;13.68;11.15;;;13.80;99.90;;;;;;5113842;28;20424;-66
2023/05/16 01:57:10;;;;;;;13.68;11.50;;;13.80;99.90;;;;;;5116066;28;20515;-66
2023/05/16 01:59:38;;;;;;;14.45;11.50;;;13.80;99.90;;;;;;5118618;28;20473;-64
2023/05/16 02:02:05;;;;;;;14.20;12.18;;;13.60;99.90;;;;;;5117107;28;20513;-65
2023/05/16 02:04:32;;;;;;;14.27;11.17;;;13.50;99.90;;;;;;5118498;28;20697;-65
2023/05/16 02:07:00;;;;;;;12.25;9.75;;;13.60;99.90;;;;;;5115994;28;20945;-67
2023/05/16 02:09:27;;;;;;;14.52;11.70;;;13.70;99.90;;;;;;5119115;28;20420;-65
2023/05/16 02:11:54;;;;;;;12.73;10.13;;;13.70;99.90;;;;;;5119300;28;20428;-65
2023/05/16 02:14:24;;;;;;;14.38;10.52;;;13.60;99.90;;;;;;5118526;28;20412;-64
2023/05/16 02:16:51;;;;;;;15.38;12.68;;;13.50;99.90;;;;;;5117510;28;20438;-66
2023/05/16 02:19:18;;;;;;;15.68;11.77;;;13.60;99.90;;;;;;5118457;28;20472;-65
2023/05/16 02:21:45;;;;;;;14.82;11.48;;;13.60;99.90;;;;;;5119031;28;20428;-63
2023/05/16 02:24:12;;;;;;;15.80;10.75;;;13.60;99.90;;;;;;5101389;28;20416;-66
2023/05/16 02:26:39;;;;;;;16.53;11.70;;;13.40;99.90;;;;;;5119137;28;20435;-64
2023/05/16 02:29:06;;;;;;;15.57;11.87;;;13.50;99.90;;;;;;5119096;28;20420;-65
2023/05/16 02:31:35;;;;;;;15.05;11.52;;;13.60;99.90;;;;;;5117883;28;20424;-66
2023/05/16 02:34:02;;;;;;;14.30;10.57;;;13.60;99.90;;;;;;5115963;28;20432;-66
2023/05/16 02:36:29;;;;;;;16.52;12.10;;;13.70;99.90;;;;;;5117662;28;20716;-65
2023/05/16 02:38:56;;;;;;;14.60;10.98;;;13.70;99.90;;;;;;5118509;28;20412;-65
2023/05/16 02:41:24;;;;;;;17.08;12.20;;;13.70;99.90;;;;;;5118545;28;20427;-65
2023/05/16 02:43:51;;;;;;;16.43;11.40;;;13.70;99.90;;;;;;5117701;28;20436;-66
2023/05/16 02:46:22;;;;;;;15.48;11.27;;;13.70;99.90;;;;;;5118290;28;20439;-65
2023/05/16 02:48:51;;;;;;;17.85;12.77;;;13.60;99.90;;;;;;5117217;28;20416;-65
2023/05/16 02:51:19;;;;;;;14.55;11.20;;;13.60;99.90;;;;;;5117373;28;20419;-65
2023/05/16 02:53:45;;;;;;;16.92;11.98;;;13.50;99.90;;;;;;5118230;28;20419;-65
2023/05/16 02:56:13;;;;;;;18.38;13.07;;;13.50;99.90;;;;;;5118527;28;20420;-65
2023/05/16 02:58:40;;;;;;;17.77;12.55;;;13.40;99.90;;;;;;5118272;28;20507;-65
2023/05/16 03:01:07;;;;;;;18.50;12.55;;;13.40;99.90;;;;;;5118563;28;20777;-65
2023/05/16 03:03:35;;;;;;;16.30;12.05;;;13.40;99.90;;;;;;5118163;28;20788;-66
2023/05/16 03:06:03;;;;;;;17.27;12.77;;;13.40;99.90;;;;;;5118182;28;20432;-65
2023/05/16 03:08:30;;;;;;;17.45;11.95;;;13.30;99.90;;;;;;5117822;28;20422;-63
2023/05/16 03:10:57;;;;;;;17.42;11.85;;;13.40;99.90;;;;;;5116897;28;20436;-66
2023/05/16 03:13:24;;;;;;;16.10;12.00;;;13.50;99.90;;;;;;5118079;28;20715;-66
2023/05/16 03:15:51;;;;;;;15.30;11.85;;;13.50;99.90;;;;;;5117048;28;20424;-66
2023/05/16 03:18:18;;;;;;;19.00;12.20;;;13.50;99.90;;;;;;5117452;28;20420;-65
2023/05/16 03:20:46;;;;;;;19.38;12.00;;;13.40;99.90;;;;;;5116961;28;20480;-66
2023/05/16 03:23:14;;;;;;;19.00;11.27;;;13.40;99.90;;;;;;5115453;28;20420;-65
2023/05/16 03:25:42;;;;;;;18.00;12.93;;;13.50;99.90;;;;;;5115960;28;20428;-65
2023/05/16 03:28:09;;;;;;;20.37;15.13;;;13.40;99.90;;;;;;5115381;28;20442;-64
2023/05/16 03:30:36;;;;;;;19.85;13.30;;;13.40;99.90;;;;;;5116935;28;20466;-65
2023/05/16 03:33:04;;;;;;;21.15;14.48;;;13.20;99.90;;;;;;5117071;28;20427;-64
2023/05/16 03:35:32;;;;;;;18.40;14.20;;;13.30;99.90;;;;;;5117664;28;20871;-65
2023/05/16 03:37:59;;;;;;;18.95;12.95;;;13.40;99.90;;;;;;5117644;28;20583;-65
2023/05/16 03:40:27;;;;;;;22.48;14.68;;;13.50;99.90;;;;;;5117564;28;20761;-64
2023/05/16 03:42:54;;;;;;;23.92;15.50;;;13.40;99.90;;;;;;5117243;28;20425;-64
2023/05/16 03:45:21;;;;;;;21.92;14.70;;;13.30;99.90;;;;;;5116114;28;20485;-64
2023/05/16 03:47:49;;;;;;;21.02;14.20;;;13.40;99.90;;;;;;5116013;28;20489;-64
2023/05/16 03:50:16;;;;;;;21.35;13.75;;;13.30;99.90;;;;;;5116199;28;20417;-65
2023/05/16 03:52:43;;;;;;;22.55;15.27;;;13.40;99.90;;;;;;5117247;28;20416;-65
2023/05/16 03:55:13;;;;;;;21.27;13.95;;;13.30;99.90;;;;;;5116956;28;20420;-65
2023/05/16 03:57:42;;;;;;;21.20;14.65;;;13.30;99.90;;;;;;5115801;28;20428;-65
2023/05/16 04:00:11;;;;;;;23.85;15.13;;;13.30;99.90;;;;;;5116994;28;20420;-64
2023/05/16 04:02:39;;;;;;;21.10;14.80;;;13.30;99.90;;;;;;5115635;28;20464;-65
2023/05/16 04:05:08;;;;;;;22.30;16.20;;;13.20;99.90;;;;;;5115014;28;20455;-63
2023/05/16 04:07:35;;;;;;;20.23;14.25;;;13.20;99.90;;;;;;5094015;28;20425;-63
2023/05/16 04:10:02;;;;;;;25.88;17.10;;;13.20;99.90;;;;;;5093304;28;20410;-61
2023/05/16 04:12:29;;;;;;;20.83;15.30;;;13.20;99.90;;;;;;5092923;28;20494;-63
2023/05/16 04:14:57;;;;;;;23.75;16.13;;;13.20;99.90;;;;;;5104446;28;20441;-65
2023/05/16 04:17:24;;;;;;;22.48;14.95;;;13.30;99.90;;;;;;5116179;28;20416;-65
2023/05/16 04:19:51;;;;;;;23.83;15.50;;;13.40;99.90;;;;;;5114387;28;20730;-65
2023/05/16 04:22:18;;;;;;;22.60;15.60;;;13.20;99.90;;;;;;5115392;28;20428;-65
2023/05/16 04:24:45;;;;;;;24.40;17.23;;;13.30;99.90;;;;;;5115134;28;20712;-65
2023/05/16 04:27:12;;;;;;;23.67;16.67;;;13.30;99.90;;;;;;5115005;28;20481;-64
2023/05/16 04:29:39;;;;;;;23.80;17.02;;;13.30;99.90;;;;;;5115317;28;20412;-65
2023/05/16 04:32:08;;;;;;;24.55;16.10;;;13.30;99.90;;;;;;5113008;28;20446;-64
2023/05/16 04:34:36;;;;;;;26.67;16.70;;;13.30;99.90;;;;;;5114306;28;20419;-64
2023/05/16 04:37:06;;;;;;;23.70;15.57;;;13.10;99.90;;;;;;5116260;28;20523;-64
2023/05/16 04:39:33;;;;;;;23.60;15.82;;;13.10;99.90;;;;;;5096055;28;20906;-65
2023/05/16 04:42:01;;;;;;;21.30;14.88;;;13.10;99.90;;;;;;5110324;28;20554;-63
2023/05/16 04:44:28;;;;;;;25.08;14.98;;;13.20;99.90;;;;;;5116197;28;20773;-65
2023/05/16 04:46:55;;;;;;;24.83;16.00;;;13.10;99.90;;;;;;5115456;28;20432;-62
2023/05/16 04:49:23;;;;;;;24.00;16.40;;;13.30;99.90;;;;;;5113570;28;20435;-62
2023/05/16 04:51:50;;;;;;;22.02;14.52;;;13.20;99.90;;;;;;5113884;28;20849;-62
2023/05/16 04:54:17;;;;;;;23.83;16.40;;;13.20;99.90;;;;;;5113417;28;20423;-63
2023/05/16 04:56:44;;;;;;;18.95;13.38;;;13.30;99.90;;;;;;5111915;28;20436;-62
2023/05/16 04:59:11;;;;;;;19.00;13.80;;;13.40;99.90;;;;;;5106891;28;20432;-62
2023/05/16 05:01:38;;;;;;;21.25;14.70;;;13.70;99.90;;;;;;5111639;28;20427;-62
2023/05/16 05:04:05;;;;;;;23.17;14.97;;;13.90;99.90;;;;;;5111760;28;20469;-64
2023/05/16 05:06:34;;;;;;;21.03;14.63;;;14.00;99.90;;;;;;5109961;28;20489;-62
2023/05/16 05:09:01;;;;;;;23.25;15.40;;;13.80;99.90;;;;;;5111664;28;20436;-62
2023/05/16 05:11:28;;;;;;;21.75;15.30;;;13.80;99.90;;;;;;5111066;28;20496;-62
2023/05/16 05:13:55;;;;;;;22.90;14.43;;;13.90;99.90;;;;;;5114859;28;20420;-63
2023/05/16 05:16:22;;;;;;;23.20;15.65;;;13.80;99.90;;;;;;5114453;28;20920;-62
2023/05/16 05:18:49;;;;;;;20.35;13.93;;;13.70;99.90;;;;;;5112524;28;20416;-61
2023/05/16 05:21:17;;;;;;;22.65;15.63;;;13.70;99.90;;;;;;5112617;28;20447;-67
2023/05/16 05:23:45;;;;;;;21.87;15.03;;;13.60;99.90;;;;;;5112332;28;20838;-63
2023/05/16 05:26:12;;;;;;;22.70;15.52;;;13.70;99.90;;;;;;5111376;28;20424;-63
2023/05/16 05:28:40;;;;;;;21.60;14.75;;;13.80;99.90;;;;;;5109634;28;20431;-62
2023/05/16 05:31:07;;;;;;;21.05;14.35;;;13.90;99.90;;;;;;5108733;28;20436;-62
2023/05/16 05:33:34;;;;;;;26.50;17.15;;;13.90;99.90;;;;;;5110875;28;20432;-62
2023/05/16 05:36:01;;;;;;;19.10;12.93;;;13.80;99.90;;;;;;5113707;28;20683;-62
2023/05/16 05:38:28;;;;;;;21.20;14.10;;;13.80;99.90;;;;;;5109547;28;20533;-62
2023/05/16 05:40:57;;;;;;;24.00;16.27;;;14.00;99.90;;;;;;5110728;28;20527;-63
2023/05/16 05:43:24;;;;;;;19.90;13.15;;;14.00;99.90;;;;;;5111563;28;20488;-61
2023/05/16 05:45:51;;;;;;;22.80;15.20;;;13.90;99.90;;;;;;5098104;28;20486;-63
2023/05/16 05:48:18;;;;;;;20.87;15.00;;;14.00;99.90;;;;;;5092905;28;20422;-60
2023/05/16 05:50:45;;;;;;;21.20;15.20;;;13.80;99.90;;;;;;5106612;28;20439;-62
2023/05/16 05:53:12;;;;;;;22.05;15.05;;;13.60;99.90;;;;;;5112695;28;20412;-63
2023/05/16 05:55:41;;;;;;;21.42;15.13;;;13.60;99.90;;;;;;5112327;28;20457;-62
2023/05/16 05:58:09;;;;;;;22.17;14.57;;;13.50;99.90;;;;;;5111729;28;20840;-63
2023/05/16 06:00:36;;;;;;;23.50;15.45;;;13.60;99.90;;;;;;5112142;28;20439;-62
2023/05/16 06:03:04;;;;;;;24.23;14.88;;;13.70;99.90;;;;;;5110177;28;20420;-63
2023/05/16 06:05:31;;;;;;;22.55;15.40;;;13.80;99.90;;;;;;5112118;28;20412;-64
2023/05/16 06:07:58;;;;;;;21.60;15.05;;;13.80;99.90;;;;;;5101891;28;20464;-64
2023/05/16 06:10:25;;;;;;;21.48;14.80;;;13.80;99.90;;;;;;5091321;28;20444;-64
2023/05/16 06:12:52;;;;;;;17.63;12.50;;;13.90;99.90;;;;;;5090306;28;20433;-63
2023/05/16 06:15:20;;;;;;;20.67;14.55;;;14.00;99.90;;;;;;5093245;28;20429;-63
2023/05/16 06:17:47;;;;;;;18.02;12.65;;;14.00;99.90;;;;;;5092170;28;20513;-64
2023/05/16 06:20:15;;;;;;;17.87;12.27;;;14.10;99.90;;;;;;5092237;28;20441;-64
2023/05/16 06:22:42;;;;;;;16.10;11.93;;;14.20;99.90;;;;;;5092228;28;20468;-63
2023/05/16 06:25:09;;;;;;;17.10;12.53;;;14.30;99.90;;;;;;5091116;28;20450;-63
2023/05/16 06:27:37;;;;;;;19.73;13.50;;;14.40;99.90;;;;;;5112166;28;20436;-63
2023/05/16 06:30:05;;;;;;;18.60;13.38;;;14.40;99.90;;;;;;5110536;28;20439;-63
2023/05/16 06:32:34;;;;;;;16.88;12.02;;;14.30;99.90;;;;;;5109105;28;20432;-63
2023/05/16 06:35:00;;;;;;;20.38;13.85;;;14.30;99.90;;;;;;5107331;28;20773;-62
2023/05/16 06:37:27;;;;;;;19.60;13.43;;;14.40;99.90;;;;;;5109573;28;20424;-62
2023/05/16 06:39:55;;;;;;;20.20;12.23;;;14.30;99.90;;;;;;5110603;28;20415;-63
2023/05/16 06:42:22;;;;;;;18.10;12.68;;;14.30;99.90;;;;;;5111826;28;20424;-62
2023/05/16 06:44:49;;;;;;;17.85;13.02;;;14.20;99.90;;;;;;5113246;28;20419;-62
2023/05/16 06:47:16;;;;;;;15.65;11.57;;;14.10;99.90;;;;;;5112936;28;20431;-62
2023/05/16 06:49:45;;;;;;;18.27;12.90;;;14.10;99.90;;;;;;5096304;28;20414;-62
2023/05/16 06:52:12;;;;;;;16.70;12.20;;;14.10;99.90;;;;;;5096160;28;21056;-63
2023/05/16 06:54:39;;;;;;;14.65;10.63;;;14.00;99.90;;;;;;5095819;28;20479;-62
2023/05/16 06:57:07;;;;;;;14.25;11.02;;;14.00;99.90;;;;;;5102402;28;20840;-63
2023/05/16 06:59:35;;;;;;;16.80;11.32;;;14.00;99.90;;;;;;5116862;28;20426;-63
2023/05/16 07:02:02;;;;;;;13.87;10.77;;;13.90;99.90;;;;;;5115810;28;20432;-64
2023/05/16 07:04:29;;;;;;;17.30;12.38;;;14.10;99.90;;;;;;5115588;28;20502;-62
2023/05/16 07:06:57;;;;;;;14.88;10.40;;;14.00;99.90;;;;;;5113737;28;20435;-63
2023/05/16 07:09:24;;;;;;;18.23;12.00;;;13.90;99.90;;;;;;5116953;28;20469;-64
2023/05/16 07:11:51;;;;;;;17.23;11.00;;;14.00;99.90;;;;;;5115946;28;20436;-64
2023/05/16 07:14:18;;;;;;;16.45;11.40;;;13.90;99.90;;;;;;5117628;28;20465;-64
2023/05/16 07:16:45;;;;;;;14.60;9.90;;;13.70;99.90;;;;;;5115958;28;20424;-62
2023/05/16 07:19:12;;;;;;;12.80;10.18;;;13.80;99.90;;;;;;5113237;28;20509;-64
2023/05/16 07:21:39;;;;;;;13.90;9.13;;;13.70;99.90;;;;;;5112328;28;20520;-65
2023/05/16 07:24:08;;;;;;;11.15;8.57;;;13.80;99.90;;;;;;5114187;28;20436;-63
2023/05/16 07:26:35;;;;;;;9.68;7.20;;;13.90;99.90;;;;;;5114956;28;21075;-63
2023/05/16 07:29:03;;;;;;;12.32;7.40;;;13.90;99.90;;;;;;5111319;28;20512;-63
2023/05/16 07:31:31;;;;;;;8.55;5.93;;;13.90;99.90;;;;;;5111519;28;20434;-64
2023/05/16 07:33:58;;;;;;;12.15;7.60;;;14.00;99.90;;;;;;5104440;28;20509;-63
2023/05/16 07:36:25;;;;;;;7.20;5.45;;;14.10;99.90;;;;;;5111860;28;20875;-63
2023/05/16 07:38:52;;;;;;;6.28;4.70;;;14.10;99.90;;;;;;5106218;28;20439;-64
2023/05/16 07:41:20;;;;;;;5.38;4.25;;;14.20;99.90;;;;;;5113275;28;20443;-64
2023/05/16 07:43:47;;;;;;;7.80;5.10;;;14.30;99.90;;;;;;5114384;28;20850;-63
2023/05/16 07:46:14;;;;;;;4.50;3.20;;;14.40;99.90;;;;;;5113147;28;20778;-64
2023/05/16 07:48:41;;;;;;;3.90;3.10;;;14.30;99.90;;;;;;5113954;28;20500;-65
2023/05/16 07:51:08;;;;;;;5.97;3.03;;;14.10;99.90;;;;;;5114711;28;20428;-64
2023/05/16 07:53:35;;;;;;;4.78;2.75;;;14.10;99.90;;;;;;5105477;28;20418;-65
2023/05/16 07:56:02;;;;;;;4.53;2.90;;;14.20;99.90;;;;;;5098680;28;20435;-61
2023/05/16 07:58:31;;;;;;;4.30;2.80;;;14.30;99.90;;;;;;5113362;27;20421;-62
2023/05/16 08:00:58;;;;;;;4.25;3.15;;;14.30;99.90;;;;;;5110318;28;20431;-64
2023/05/16 08:03:25;;;;;;;4.18;3.20;;;14.30;99.90;;;;;;5111883;28;20435;-66
2023/05/16 08:05:52;;;;;;;4.20;3.80;;;14.30;99.90;;;;;;5111135;28;20428;-66
2023/05/16 08:08:19;;;;;;;3.97;3.03;;;14.30;99.90;;;;;;5111877;28;20424;-62
2023/05/16 08:10:46;;;;;;;8.90;3.45;;;14.30;99.90;;;;;;5111933;28;20539;-62
2023/05/16 08:13:14;;;;;;;3.80;3.20;;;14.30;99.90;;;;;;5112551;28;20416;-68
2023/05/16 08:15:42;;;;;;;3.33;2.53;;;14.30;99.90;;;;;;5112777;28;20485;-68
2023/05/16 08:18:14;;;;;;;5.10;2.85;;;14.30;99.90;;;;;;5113360;28;20507;-62
2023/05/16 08:20:41;;;;;;;4.13;3.42;;;14.30;99.90;;;;;;5114375;28;20528;-63
2023/05/16 08:23:08;;;;;;;5.70;4.00;;;14.30;99.90;;;;;;5114274;28;20507;-63
2023/05/16 08:25:35;;;;;;;4.18;3.22;;;14.30;99.90;;;;;;5114113;28;20473;-63
2023/05/16 08:28:02;;;;;;;4.10;3.20;;;14.40;99.90;;;;;;5114991;28;21003;-61
2023/05/16 08:30:30;;;;;;;4.88;3.38;;;14.40;99.90;;;;;;5114265;28;20420;-59
2023/05/16 08:32:58;;;;;;;4.80;3.40;;;14.20;99.90;;;;;;5113764;28;20807;-61
2023/05/16 08:35:25;;;;;;;3.85;3.08;;;14.10;99.90;;;;;;5113177;28;20432;-63
2023/05/16 08:37:52;;;;;;;4.47;4.07;;;14.20;99.90;;;;;;5114211;28;20465;-63
2023/05/16 08:40:20;;;;;;;5.30;3.83;;;14.20;99.90;;;;;;5112935;28;20416;-64
2023/05/16 08:42:47;;;;;;;4.15;3.00;;;14.20;99.90;;;;;;5112524;28;20419;-62
2023/05/16 08:45:14;;;;;;;6.40;5.07;;;14.20;99.90;;;;;;5113186;28;20421;-63
2023/05/16 08:47:43;;;;;;;7.05;4.30;;;14.10;99.90;;;;;;5113455;28;20424;-63
2023/05/16 08:50:12;;;;;;;5.47;4.33;;;14.10;99.90;;;;;;5112107;28;20417;-64
2023/05/16 08:52:41;;;;;;;6.00;5.05;;;14.10;99.90;;;;;;5111939;28;20646;-63
2023/05/16 08:55:11;;;;;;;6.30;4.40;;;14.10;99.90;;;;;;5111648;28;20420;-64
2023/05/16 08:57:39;;;;;;;7.53;5.20;;;14.00;99.90;;;;;;5107934;28;20426;-63
2023/05/16 09:00:10;;;;;;;6.72;4.88;;;14.00;99.90;;;;;;5111976;28;20412;-63
2023/05/16 09:02:38;;;;;;;6.97;4.40;;;13.90;99.90;;;;;;5111717;28;20431;-63
2023/05/16 09:05:07;;;;;;;7.00;5.38;;;14.00;99.90;;;;;;5111747;28;20768;-63
2023/05/16 09:07:36;;;;;;;6.80;5.55;;;13.90;99.90;;;;;;5105725;28;20902;-64
2023/05/16 09:10:04;;;;;;;7.55;5.20;;;13.80;99.90;;;;;;5109855;28;20536;-63
2023/05/16 09:12:31;;;;;;;7.30;6.15;;;13.80;99.90;;;;;;5094076;28;20432;-63
2023/05/16 09:14:59;;;;;;;7.90;6.00;;;13.90;99.90;;;;;;5114016;28;20473;-63
2023/05/16 09:17:26;;;;;;;8.00;5.50;;;13.90;99.90;;;;;;5113466;28;20843;-62
2023/05/16 09:19:56;;;;;;;7.93;5.85;;;14.00;99.90;;;;;;5112633;28;20448;-63
2023/05/16 09:22:24;;;;;;;8.00;5.60;;;14.10;99.90;;;;;;5112511;28;20432;-63
2023/05/16 09:24:53;;;;;;;7.95;6.53;;;14.20;99.90;;;;;;5111878;28;20408;-64
2023/05/16 09:27:20;;;;;;;7.57;5.47;;;14.30;99.90;;;;;;5113399;28;20488;-64
2023/05/16 09:29:51;;;;;;;7.22;6.10;;;14.60;99.90;;;;;;5111007;28;20461;-64
2023/05/16 09:32:18;;;;;;;7.33;5.63;;;14.80;99.90;;;;;;5110572;28;20432;-64
2023/05/16 09:34:48;;;;;;;10.63;7.68;;;15.00;99.90;;;;;;5112402;28;20407;-63
2023/05/16 09:37:15;;;;;;;9.82;6.55;;;15.10;99.90;;;;;;5108565;28;20458;-62
2023/05/16 09:39:48;;;;;;;11.30;7.70;;;15.10;99.90;;;;;;5111960;28;20473;-63
2023/05/16 09:42:17;;;;;;;12.38;8.00;;;15.00;99.90;;;;;;5110475;28;20435;-62
2023/05/16 09:44:47;;;;;;;10.23;7.57;;;15.10;99.90;;;;;;5108260;28;20433;-62
2023/05/16 09:47:15;;;;;;;9.38;6.93;;;15.00;99.90;;;;;;5100534;28;20697;-63
2023/05/16 09:49:42;;;;;;;8.18;6.20;;;15.00;99.90;;;;;;5110655;28;20421;-61
2023/05/16 09:52:10;;;;;;;8.75;6.53;;;14.80;99.90;;;;;;5110411;28;20441;-61
2023/05/16 09:54:37;;;;;;;9.05;6.20;;;14.90;99.90;;;;;;5111920;28;20452;-62
2023/05/16 09:57:04;;;;;;;9.98;7.45;;;15.10;99.90;;;;;;5108754;28;20785;-61
2023/05/16 09:59:36;;;;;;;10.45;6.90;;;15.30;99.90;;;;;;5111360;28;20492;-60
2023/05/16 10:02:04;;;;;;;10.00;6.83;;;15.60;99.90;;;;;;5108827;28;20866;-61
2023/05/16 10:04:32;;;;;;;8.30;5.85;;;15.90;99.90;;;;;;5110188;28;20423;-62
2023/05/16 10:07:02;;;;;;;9.55;6.78;;;16.20;99.90;;;;;;5110539;28;20500;-63
2023/05/16 10:09:31;;;;;;;8.02;5.70;;;16.40;99.90;;;;;;5109958;28;20420;-64
2023/05/16 10:12:03;;;;;;;6.43;5.68;;;16.50;99.90;;;;;;5101670;28;20916;-62
2023/05/16 10:14:36;;;;;;;7.22;5.38;;;16.40;99.90;;;;;;5107348;28;20868;-62
2023/05/16 10:17:04;;;;;;;8.90;6.57;;;16.20;99.90;;;;;;5101066;28;20443;-61
2023/05/16 10:19:34;;;;;;;8.45;5.30;;;16.20;99.90;;;;;;5113646;28;20443;-62
2023/05/16 10:22:05;;;;;;;8.15;5.60;;;16.40;99.90;;;;;;5109109;28;20432;-61
2023/05/16 10:24:42;;;;;;;8.00;5.30;;;16.30;99.90;;;;;;5114077;28;20555;-61
2023/05/16 10:27:10;;;;;;;8.32;5.57;;;16.40;99.90;;;;;;5115120;28;20416;-62
2023/05/16 10:29:40;;;;;;;10.20;5.82;;;16.20;99.90;;;;;;5115045;28;20457;-59
2023/05/16 10:32:09;;;;;;;7.72;5.30;;;16.10;99.90;;;;;;5115173;28;20428;-61
2023/05/16 10:34:36;;;;;;;8.88;5.50;;;16.00;99.90;;;;;;5113107;28;20436;-61
2023/05/16 10:37:04;;;;;;;6.05;4.43;;;16.20;99.90;;;;;;5115168;28;20505;-62
2023/05/16 10:39:33;;;;;;;8.35;5.60;;;16.30;99.90;;;;;;5116474;28;20412;-62
2023/05/16 10:42:00;;;;;;;7.90;5.07;;;16.30;99.90;;;;;;5113229;28;20511;-62
2023/05/16 10:44:31;;;;;;;7.95;5.38;;;16.10;99.90;;;;;;5114582;28;20419;-60
2023/05/16 10:47:03;;;;;;;7.13;4.60;;;15.50;99.90;;;;;;5105198;28;20491;-61
2023/05/16 10:49:31;;;;;;;9.10;6.25;;;15.40;99.90;;;;;;5094568;28;20460;-61
2023/05/16 10:52:07;;;;;;;5.78;4.78;;;15.20;99.90;;;;;;5115124;28;20428;-61
2023/05/16 10:54:35;;;;;;;7.70;5.45;;;15.20;99.90;;;;;;5114805;28;20420;-61
2023/05/16 10:57:08;;;;;;;7.40;4.70;;;15.10;99.90;;;;;;5111910;28;20442;-62
2023/05/16 10:59:42;;;;;;;7.57;5.10;;;15.10;99.90;;;;;;5112484;28;20531;-62
2023/05/16 11:02:25;;;;;;;5.90;3.63;;;15.00;99.90;;;;;;5114623;28;20547;-60
2023/05/16 11:04:53;;;;;;;8.05;4.15;;;15.00;99.90;;;;;;5113965;28;20400;-60
2023/05/16 11:07:21;;;;;;;8.57;4.70;;;14.70;99.90;;;;;;5112549;28;20424;-61
2023/05/16 11:10:04;;;;;;;7.00;4.23;;;14.60;99.90;;;;;;5114977;28;20416;-60
2023/05/16 11:12:49;;;;;;;5.25;3.65;;;14.30;99.90;;;;;;5109562;28;20428;-60
2023/05/16 11:15:21;;;;;;;6.28;4.22;;;14.20;99.90;;;;;;5107996;28;20497;-60
2023/05/16 11:17:50;;;;;;;9.23;3.85;;;14.20;99.90;;;;;;5106592;28;20428;-60
2023/05/16 11:20:28;;;;;;;6.80;3.60;;;14.20;99.90;;;;;;5111969;28;20870;-61
2023/05/16 11:23:22;;;;;;;5.63;3.23;;;14.20;99.90;;;;;;5114344;28;20419;-59
2023/05/16 11:25:54;;;;;;;5.07;2.67;;;14.10;99.90;;;;;;5113710;28;20839;-59
2023/05/16 11:28:23;;;;;;;5.78;3.10;;;13.90;99.90;;;;;;5111842;28;20436;-58
2023/05/16 11:30:54;;;;;;;4.63;2.35;;;13.80;99.90;;;;;;5111112;28;20430;-59
2023/05/16 11:33:24;;;;;;;4.13;2.42;;;13.70;99.90;;;;;;5113567;28;20436;-59
2023/05/16 11:36:01;;;;;;;5.68;2.92;;;13.70;99.90;;;;;;5114434;28;20424;-59
2023/05/16 11:38:30;;;;;;;5.20;2.30;;;13.70;99.90;;;;;;5110982;28;20455;-58
2023/05/16 11:41:04;;;;;;;5.45;3.03;;;13.60;99.90;;;;;;5111569;28;20424;-58
2023/05/16 11:43:38;;;;;;;3.83;2.20;;;13.60;99.90;;;;;;5113521;28;20975;-56
2023/05/16 11:46:05;;;;;;;5.03;2.80;;;13.50;99.90;;;;;;5112787;28;20909;-53
2023/05/16 11:48:33;;;;;;;5.38;1.50;;;13.50;99.90;;;;;;5104234;28;20496;-55
2023/05/16 11:51:00;;;;;;;3.70;1.60;;;13.50;99.90;;;;;;5091905;28;20516;-55
2023/05/16 11:53:28;;;;;;;2.45;1.50;;;13.50;99.90;;;;;;5108118;28;20854;-58
2023/05/16 11:55:55;;;;;;;3.13;1.90;;;13.60;99.90;;;;;;5112883;28;20426;-58
2023/05/16 11:58:22;;;;;;;3.20;1.60;;;13.70;99.90;;;;;;5113500;28;20420;-58
2023/05/16 12:00:50;;;;;;;2.60;1.42;;;13.70;99.90;;;;;;5113035;28;20475;-59
2023/05/16 12:03:19;;;;;;;3.25;1.50;;;13.80;99.90;;;;;;5112721;28;20439;-58
2023/05/16 12:05:55;;;;;;;2.70;1.40;;;13.80;99.90;;;;;;5112284;28;20653;-57
2023/05/16 12:08:23;;;;;;;3.17;1.60;;;13.80;99.90;;;;;;5112658;28;20435;-57
2023/05/16 12:10:51;;;;;;;2.03;1.20;;;13.80;99.90;;;;;;5112048;28;20785;-59
2023/05/16 12:13:19;;;;;;;2.80;1.60;;;13.80;99.90;;;;;;5112282;28;20517;-58
2023/05/16 12:15:47;;;;;;;2.17;1.60;;;13.80;99.90;;;;;;5113549;28;20424;-59
2023/05/16 12:18:15;;;;;;;3.70;1.50;;;13.80;99.90;;;;;;5113456;28;20493;-60
2023/05/16 12:20:44;;;;;;;2.20;1.30;;;13.80;99.90;;;;;;5111355;28;20446;-59
2023/05/16 12:23:13;;;;;;;2.78;1.50;;;13.80;99.90;;;;;;5104271;28;20463;-60
2023/05/16 12:25:45;;;;;;;2.22;1.50;;;13.90;99.90;;;;;;5113794;28;20778;-58
2023/05/16 12:28:13;;;;;;;2.77;1.50;;;13.90;99.90;;;;;;5112861;28;20431;-59
2023/05/16 12:30:42;;;;;;;3.25;1.35;;;13.90;99.90;;;;;;5110279;28;20428;-59
2023/05/16 12:33:11;;;;;;;4.15;1.50;;;14.00;99.90;;;;;;5108214;28;21144;-59
2023/05/16 12:35:40;;;;;;;3.00;1.30;;;14.10;99.90;;;;;;5111188;28;20535;-59
2023/05/16 12:38:08;;;;;;;3.10;1.20;;;14.10;99.90;;;;;;5111923;28;20420;-59
2023/05/16 12:40:38;;;;;;;1.80;1.20;;;14.10;99.90;;;;;;5109446;28;20442;-59
2023/05/16 12:43:05;;;;;;;1.90;1.10;;;14.20;99.90;;;;;;5110575;28;20439;-59
2023/05/16 12:45:33;;;;;;;1.48;0.90;;;14.10;99.90;;;;;;5111737;28;20665;-60